createdAt,value
2019-04-30T00:01:26.105Z,73.40
2019-04-30T00:03:50.467Z,73.80
2019-04-30T00:06:10.580Z,73.50
2019-04-30T00:08:37.561Z,73.40
2019-04-30T00:10:52.745Z,73.00
2019-04-30T00:13:17.840Z,73.60
2019-04-30T00:15:35.779Z,72.90
2019-04-30T00:18:01.749Z,73.30
2019-04-30T00:20:20.245Z,73.10
2019-04-30T00:22:47.235Z,72.80
2019-04-30T00:25:05.354Z,72.70
2019-04-30T00:27:30.043Z,73.10
2019-04-30T00:29:47.995Z,74.20
2019-04-30T00:32:08.543Z,73.00
2019-04-30T00:34:31.021Z,73.20
2019-04-30T00:36:51.546Z,73.30
2019-04-30T00:39:13.384Z,73.60
2019-04-30T00:41:35.372Z,74.10
2019-04-30T00:43:55.339Z,73.60
2019-04-30T00:46:17.454Z,74.00
2019-04-30T00:48:37.989Z,73.60
2019-04-30T00:50:58.516Z,74.10
2019-04-30T00:53:20.713Z,73.50
2019-04-30T00:55:44.936Z,74.10
2019-04-30T00:58:06.001Z,73.70
2019-04-30T01:00:29.621Z,73.90
2019-04-30T01:03:09.284Z,74.90
2019-04-30T01:05:28.901Z,73.70
2019-04-30T01:07:51.826Z,73.50
2019-04-30T01:10:12.760Z,73.30
2019-04-30T01:12:38.498Z,73.00
2019-04-30T01:14:55.461Z,73.00
2019-04-30T01:17:16.106Z,73.50
2019-04-30T01:19:36.711Z,73.80
2019-04-30T01:21:57.234Z,74.20
2019-04-30T01:24:19.043Z,74.20
2019-04-30T01:26:39.792Z,74.20
2019-04-30T01:29:02.185Z,74.30
2019-04-30T01:31:22.217Z,72.90
2019-04-30T01:33:42.830Z,72.70
2019-04-30T01:36:04.085Z,72.80
2019-04-30T01:38:26.005Z,73.10
2019-04-30T01:40:47.425Z,73.00
2019-04-30T01:43:09.129Z,72.40
2019-04-30T01:45:31.585Z,72.90
2019-04-30T01:47:51.888Z,73.40
2019-04-30T01:50:12.495Z,73.40
2019-04-30T01:52:50.769Z,73.40
2019-04-30T01:55:11.367Z,71.80
2019-04-30T01:57:33.507Z,72.00
2019-04-30T02:00:11.819Z,71.90
2019-04-30T02:02:36.707Z,71.80
2019-04-30T02:04:59.035Z,71.60
2019-04-30T02:07:19.297Z,72.10
2019-04-30T02:09:39.773Z,72.50
2019-04-30T02:12:00.261Z,71.90
2019-04-30T02:14:20.733Z,72.10
2019-04-30T02:16:41.498Z,72.00
2019-04-30T02:19:02.040Z,72.10
2019-04-30T02:21:22.682Z,71.40
2019-04-30T02:23:43.190Z,71.60
2019-04-30T02:26:03.697Z,71.30
2019-04-30T02:28:24.214Z,71.70
2019-04-30T02:30:45.700Z,71.80
2019-04-30T02:33:06.306Z,72.60
2019-04-30T02:35:31.038Z,71.70
2019-04-30T02:38:15.651Z,71.60
2019-04-30T02:40:39.279Z,71.80
2019-04-30T02:43:01.837Z,72.10
2019-04-30T02:45:22.060Z,72.10
2019-04-30T02:47:43.079Z,72.00
2019-04-30T02:50:15.335Z,72.70
2019-04-30T02:52:29.650Z,72.70
2019-04-30T02:54:55.047Z,72.40
2019-04-30T02:57:15.528Z,72.50
2019-04-30T02:59:40.254Z,73.20
2019-04-30T03:02:00.078Z,72.70
2019-04-30T03:04:20.569Z,72.80
2019-04-30T03:06:41.165Z,73.00
2019-04-30T03:09:01.687Z,73.10
2019-04-30T03:11:23.763Z,73.10
2019-04-30T03:13:45.820Z,73.60
2019-04-30T03:16:09.292Z,73.30
2019-04-30T03:18:49.832Z,73.20
2019-04-30T03:21:31.922Z,72.60
2019-04-30T03:23:51.496Z,73.10
2019-04-30T03:26:12.951Z,73.00
2019-04-30T03:28:33.183Z,73.40
2019-04-30T03:30:57.563Z,73.20
2019-04-30T03:33:15.957Z,73.50
2019-04-30T03:35:36.001Z,73.90
2019-04-30T03:37:59.093Z,74.80
2019-04-30T03:40:20.236Z,74.80
2019-04-30T03:42:40.939Z,74.00
2019-04-30T03:45:01.488Z,74.10
2019-04-30T03:47:23.184Z,73.70
2019-04-30T03:49:43.763Z,73.70
2019-04-30T03:52:04.231Z,74.10
2019-04-30T03:54:24.685Z,74.00
2019-04-30T03:56:45.493Z,73.90
2019-04-30T03:59:06.040Z,74.50
2019-04-30T04:01:34.313Z,74.20
2019-04-30T04:04:10.165Z,73.10
2019-04-30T04:06:41.772Z,73.90
2019-04-30T04:09:04.674Z,73.30
2019-04-30T04:11:26.857Z,72.80
2019-04-30T04:13:49.420Z,72.80
2019-04-30T04:16:11.162Z,72.80
2019-04-30T04:18:31.630Z,73.20
2019-04-30T04:21:07.634Z,72.60
2019-04-30T04:23:15.875Z,72.70
2019-04-30T04:25:36.389Z,72.60
2019-04-30T04:27:56.361Z,73.50
2019-04-30T04:30:20.049Z,72.30
2019-04-30T04:32:40.689Z,72.80
2019-04-30T04:35:00.981Z,72.60
2019-04-30T04:37:22.108Z,72.30
2019-04-30T04:39:42.661Z,72.40
2019-04-30T04:42:03.364Z,72.40
2019-04-30T04:44:25.896Z,72.10
2019-04-30T04:46:46.310Z,71.90
2019-04-30T04:49:08.913Z,71.90
2019-04-30T04:51:38.081Z,72.30
2019-04-30T04:53:51.223Z,72.70
2019-04-30T04:56:11.767Z,73.30
2019-04-30T04:58:32.415Z,72.70
2019-04-30T05:00:52.957Z,72.80
2019-04-30T05:03:15.148Z,73.00
2019-04-30T05:05:37.249Z,73.00
2019-04-30T05:07:58.423Z,73.20
2019-04-30T05:10:19.281Z,73.30
2019-04-30T05:12:40.020Z,73.50
2019-04-30T05:15:00.515Z,73.30
2019-04-30T05:17:21.036Z,73.50
2019-04-30T05:19:41.089Z,73.90
2019-04-30T05:22:02.421Z,74.00
2019-04-30T05:24:22.983Z,74.10
2019-04-30T05:26:42.929Z,74.30
2019-04-30T05:29:02.839Z,74.00
2019-04-30T05:31:22.957Z,74.90
2019-04-30T05:33:43.499Z,74.00
2019-04-30T05:36:03.485Z,75.00
2019-04-30T05:38:23.590Z,74.70
2019-04-30T05:40:44.180Z,74.80
2019-04-30T05:43:04.793Z,75.20
2019-04-30T05:45:25.259Z,75.60
2019-04-30T05:47:45.847Z,75.30
2019-04-30T05:50:09.255Z,75.80
2019-04-30T05:52:29.521Z,76.00
2019-04-30T05:54:49.903Z,75.40
2019-04-30T05:57:11.434Z,76.40
2019-04-30T05:59:32.136Z,77.20
2019-04-30T06:01:53.620Z,76.70
2019-04-30T06:04:13.678Z,76.20
2019-04-30T06:06:33.910Z,76.50
2019-04-30T06:09:06.210Z,75.90
2019-04-30T06:11:40.758Z,75.90
2019-04-30T06:14:02.847Z,75.00
2019-04-30T06:16:25.800Z,76.00
2019-04-30T06:18:46.173Z,75.80
2019-04-30T06:21:06.956Z,75.30
2019-04-30T06:23:27.081Z,75.50
2019-04-30T06:25:57.337Z,75.20
2019-04-30T06:28:12.846Z,75.30
2019-04-30T06:30:33.790Z,76.90
2019-04-30T06:32:54.937Z,76.30
2019-04-30T06:35:15.465Z,75.60
2019-04-30T06:37:36.187Z,76.70
2019-04-30T06:39:56.293Z,77.00
2019-04-30T06:42:17.030Z,77.00
2019-04-30T06:44:39.860Z,77.00
2019-04-30T06:47:01.244Z,77.80
2019-04-30T06:49:22.769Z,77.80
2019-04-30T06:51:43.661Z,78.50
2019-04-30T06:54:04.248Z,77.50
2019-04-30T06:56:24.697Z,77.50
2019-04-30T06:58:45.014Z,77.80
2019-04-30T07:01:05.421Z,77.50
2019-04-30T07:03:25.811Z,77.60
2019-04-30T07:05:48.629Z,78.30
2019-04-30T07:08:36.137Z,78.00
2019-04-30T07:10:55.591Z,78.30
2019-04-30T07:13:18.843Z,78.80
2019-04-30T07:15:39.533Z,77.90
2019-04-30T07:17:59.881Z,78.40
2019-04-30T07:20:20.367Z,78.30
2019-04-30T07:22:50.088Z,79.00
2019-04-30T07:25:02.773Z,79.40
2019-04-30T07:27:24.216Z,80.20
2019-04-30T07:29:44.795Z,79.50
2019-04-30T07:32:05.990Z,80.10
2019-04-30T07:34:26.188Z,80.40
2019-04-30T07:36:50.864Z,81.50
2019-04-30T07:39:10.095Z,81.80
2019-04-30T07:41:31.224Z,82.60
2019-04-30T07:43:51.627Z,82.60
2019-04-30T07:46:12.303Z,82.90
2019-04-30T07:48:32.602Z,84.10
2019-04-30T07:50:53.417Z,83.80
2019-04-30T07:53:13.570Z,84.00
2019-04-30T07:55:33.765Z,84.50
2019-04-30T07:57:53.937Z,84.40
2019-04-30T08:00:15.489Z,84.80
2019-04-30T08:02:41.534Z,85.50
2019-04-30T08:05:00.984Z,86.70
2019-04-30T08:07:21.704Z,87.10
2019-04-30T08:09:42.742Z,86.70
2019-04-30T08:12:03.425Z,87.70
2019-04-30T08:14:25.056Z,88.30
2019-04-30T08:16:45.128Z,89.00
2019-04-30T08:19:05.677Z,90.70
2019-04-30T08:21:26.195Z,91.00
2019-04-30T08:23:46.421Z,91.90
2019-04-30T08:26:08.701Z,92.00
2019-04-30T08:28:30.379Z,92.70
2019-04-30T08:30:51.009Z,93.50
2019-04-30T08:33:11.080Z,94.10
2019-04-30T08:35:31.116Z,94.90
2019-04-30T08:37:51.086Z,95.30
2019-04-30T08:40:19.089Z,96.40
2019-04-30T08:42:40.359Z,95.50
2019-04-30T08:45:01.167Z,95.70
2019-04-30T08:47:21.711Z,96.50
2019-04-30T08:49:41.824Z,96.50
2019-04-30T08:52:02.180Z,96.70
2019-04-30T08:54:22.699Z,96.60
2019-04-30T08:56:43.258Z,97.50
2019-04-30T08:59:03.239Z,97.50
2019-04-30T09:01:23.419Z,97.80
2019-04-30T09:03:43.925Z,98.20
2019-04-30T09:06:05.574Z,99.40
2019-04-30T09:08:26.336Z,99.90
2019-04-30T09:10:46.302Z,99.90
2019-04-30T09:13:09.097Z,99.90
2019-04-30T09:15:29.042Z,99.90
2019-04-30T09:18:00.675Z,99.90
2019-04-30T09:20:12.200Z,99.90
2019-04-30T09:22:32.846Z,99.90
2019-04-30T09:24:53.431Z,99.90
2019-04-30T09:27:14.059Z,99.90
2019-04-30T09:29:34.047Z,99.90
2019-04-30T09:31:54.076Z,99.90
2019-04-30T09:34:17.907Z,99.90
2019-04-30T09:36:39.010Z,99.90
2019-04-30T09:39:01.509Z,99.90
2019-04-30T09:41:22.864Z,99.90
2019-04-30T09:43:43.420Z,99.90
2019-04-30T09:46:15.200Z,99.90
2019-04-30T09:48:26.167Z,99.90
2019-04-30T09:50:49.203Z,99.90
2019-04-30T09:53:10.039Z,99.90
2019-04-30T09:55:31.008Z,99.90
2019-04-30T09:57:51.679Z,99.90
2019-04-30T10:00:13.094Z,99.90
2019-04-30T10:02:33.214Z,99.90
2019-04-30T10:04:54.022Z,99.90
2019-04-30T10:07:14.683Z,99.90
2019-04-30T10:09:36.270Z,99.90
2019-04-30T10:12:10.523Z,99.90
2019-04-30T10:14:31.283Z,99.90
2019-04-30T10:16:59.582Z,99.90
2019-04-30T10:19:20.310Z,99.90
2019-04-30T10:21:40.854Z,99.90
2019-04-30T10:24:12.521Z,99.90
2019-04-30T10:26:23.913Z,99.90
2019-04-30T10:28:45.408Z,99.90
2019-04-30T10:31:06.106Z,99.90
2019-04-30T10:33:28.579Z,99.90
2019-04-30T10:35:49.942Z,99.90
2019-04-30T10:38:10.546Z,99.90
2019-04-30T10:40:31.071Z,99.90
2019-04-30T10:42:51.682Z,99.90
2019-04-30T10:45:18.594Z,99.90
2019-04-30T10:47:39.434Z,99.90
2019-04-30T10:50:00.109Z,99.90
2019-04-30T10:52:20.735Z,99.90
2019-04-30T10:54:40.772Z,99.90
2019-04-30T10:57:01.317Z,99.90
2019-04-30T10:59:22.169Z,99.90
2019-04-30T11:01:42.139Z,99.90
2019-04-30T11:04:02.818Z,99.90
2019-04-30T11:06:23.416Z,99.90
2019-04-30T11:08:44.109Z,99.90
2019-04-30T11:11:05.082Z,99.90
2019-04-30T11:13:25.642Z,99.90
2019-04-30T11:15:45.748Z,99.90
2019-04-30T11:18:06.727Z,99.90
2019-04-30T11:20:29.680Z,99.90
2019-04-30T11:22:49.977Z,99.90
2019-04-30T11:25:11.001Z,99.90
2019-04-30T11:27:35.301Z,99.90
2019-04-30T11:30:03.162Z,99.90
2019-04-30T11:32:21.242Z,99.90
2019-04-30T11:34:41.297Z,99.90
2019-04-30T11:37:01.989Z,99.90
2019-04-30T11:39:43.433Z,99.90
2019-04-30T11:42:04.217Z,99.90
2019-04-30T11:44:31.065Z,99.90
2019-04-30T11:47:05.232Z,99.90
2019-04-30T11:49:25.788Z,99.90
2019-04-30T11:51:45.767Z,99.90
2019-04-30T11:54:05.704Z,99.90
2019-04-30T11:56:26.085Z,99.90
2019-04-30T11:58:48.793Z,99.90
2019-04-30T12:01:13.246Z,99.90
2019-04-30T12:03:35.391Z,99.90
2019-04-30T12:05:55.965Z,99.90
2019-04-30T12:08:19.435Z,99.90
2019-04-30T12:10:45.668Z,99.90
2019-04-30T12:13:09.533Z,99.90
2019-04-30T12:15:30.095Z,99.90
2019-04-30T12:17:50.627Z,99.90
2019-04-30T12:20:19.697Z,99.90
2019-04-30T12:22:41.515Z,99.90
2019-04-30T12:25:05.236Z,99.90
2019-04-30T12:27:25.238Z,99.90
2019-04-30T12:29:49.541Z,99.90
2019-04-30T12:32:11.337Z,99.90
2019-04-30T12:34:31.908Z,99.90
2019-04-30T12:36:59.589Z,99.90
2019-04-30T12:39:20.324Z,99.90
2019-04-30T12:41:40.927Z,99.90
2019-04-30T12:44:01.420Z,99.90
2019-04-30T12:46:21.921Z,99.90
2019-04-30T12:48:44.100Z,99.90
2019-04-30T12:51:10.453Z,99.90
2019-04-30T12:53:48.550Z,99.90
2019-04-30T12:56:16.745Z,99.90
2019-04-30T12:58:37.335Z,99.90
2019-04-30T13:00:59.109Z,99.90
2019-04-30T13:03:21.424Z,99.90
2019-04-30T13:05:42.164Z,99.90
2019-04-30T13:08:03.449Z,99.90
2019-04-30T13:10:25.287Z,99.90
2019-04-30T13:12:46.757Z,99.90
2019-04-30T13:15:09.729Z,99.90
2019-04-30T13:17:29.948Z,99.90
2019-04-30T13:19:50.645Z,99.90
2019-04-30T13:22:12.880Z,99.90
2019-04-30T13:24:33.215Z,99.90
2019-04-30T13:26:53.792Z,99.90
2019-04-30T13:29:22.090Z,99.90
2019-04-30T13:31:42.713Z,99.90
2019-04-30T13:34:05.046Z,99.90
2019-04-30T13:36:25.265Z,99.90
2019-04-30T13:39:03.500Z,99.90
2019-04-30T13:41:30.288Z,99.90
2019-04-30T13:43:55.231Z,99.90
2019-04-30T13:46:15.940Z,99.90
2019-04-30T13:48:36.474Z,99.90
2019-04-30T13:50:57.018Z,99.90
2019-04-30T13:53:18.633Z,99.90
2019-04-30T13:55:45.674Z,99.90
2019-04-30T13:58:02.933Z,99.90
2019-04-30T14:00:26.529Z,99.90
2019-04-30T14:02:48.686Z,99.90
2019-04-30T14:05:11.196Z,99.90
2019-04-30T14:07:45.416Z,99.90
2019-04-30T14:10:08.513Z,99.90
2019-04-30T14:12:30.140Z,99.90
2019-04-30T14:14:50.912Z,99.90
2019-04-30T14:17:11.592Z,99.90
2019-04-30T14:19:32.136Z,99.90
2019-04-30T14:21:52.765Z,99.90
2019-04-30T14:24:13.309Z,99.90
2019-04-30T14:26:33.755Z,99.90
2019-04-30T14:28:54.315Z,99.90
2019-04-30T14:31:14.763Z,99.90
2019-04-30T14:33:35.362Z,99.90
2019-04-30T14:35:55.989Z,99.90
2019-04-30T14:38:16.599Z,99.90
2019-04-30T14:40:40.511Z,99.90
2019-04-30T14:43:01.270Z,99.90
2019-04-30T14:45:24.067Z,99.90
2019-04-30T14:47:47.131Z,99.90
2019-04-30T14:50:15.302Z,99.90
2019-04-30T14:52:36.922Z,99.90
2019-04-30T14:55:05.525Z,99.90
2019-04-30T14:57:32.854Z,99.90
2019-04-30T15:00:11.078Z,99.90
2019-04-30T15:02:42.800Z,99.90
2019-04-30T15:05:05.566Z,99.90
2019-04-30T15:07:26.122Z,99.90
2019-04-30T15:09:46.950Z,99.90
2019-04-30T15:12:09.591Z,99.90
2019-04-30T15:14:33.162Z,99.90
2019-04-30T15:16:56.419Z,99.90
2019-04-30T15:19:17.024Z,99.90
2019-04-30T15:21:39.355Z,99.90
2019-04-30T15:24:04.313Z,99.90
2019-04-30T15:26:25.387Z,99.90
2019-04-30T15:28:46.094Z,99.90
2019-04-30T15:31:09.459Z,99.90
2019-04-30T15:33:34.464Z,99.90
2019-04-30T15:35:55.160Z,99.90
2019-04-30T15:38:15.897Z,99.90
2019-04-30T15:40:35.956Z,99.90
2019-04-30T15:42:57.810Z,99.90
2019-04-30T15:45:19.180Z,99.90
2019-04-30T15:47:39.181Z,99.90
2019-04-30T15:50:02.129Z,99.90
2019-04-30T15:52:21.508Z,99.90
2019-04-30T15:54:42.243Z,99.90
2019-04-30T15:57:02.914Z,99.90
2019-04-30T15:59:25.256Z,99.90
2019-04-30T16:01:50.112Z,99.90
2019-04-30T16:04:11.993Z,99.90
2019-04-30T16:06:32.510Z,99.90
2019-04-30T16:09:07.119Z,99.90
2019-04-30T16:11:30.874Z,99.90
2019-04-30T16:13:58.958Z,99.90
2019-04-30T16:16:19.557Z,99.90
2019-04-30T16:18:41.678Z,99.90
2019-04-30T16:21:02.151Z,99.90
2019-04-30T16:23:22.764Z,99.90
2019-04-30T16:25:42.810Z,99.90
2019-04-30T16:28:03.420Z,99.90
2019-04-30T16:30:24.257Z,99.90
2019-04-30T16:32:44.819Z,99.90
2019-04-30T16:35:09.619Z,99.90
2019-04-30T16:37:31.790Z,99.90
2019-04-30T16:39:54.068Z,99.90
2019-04-30T16:42:14.781Z,99.90
2019-04-30T16:44:35.368Z,99.90
2019-04-30T16:46:55.639Z,99.90
2019-04-30T16:49:16.092Z,99.90
2019-04-30T16:51:38.501Z,99.90
2019-04-30T16:53:58.866Z,99.90
2019-04-30T16:56:20.921Z,99.90
2019-04-30T16:59:00.170Z,99.90
2019-04-30T17:01:21.930Z,99.90
2019-04-30T17:03:44.841Z,99.90
2019-04-30T17:06:13.331Z,99.90
2019-04-30T17:08:35.459Z,99.90
2019-04-30T17:10:57.620Z,99.90
2019-04-30T17:13:28.470Z,99.90
2019-04-30T17:15:50.553Z,99.90
2019-04-30T17:18:12.155Z,99.90
2019-04-30T17:20:32.262Z,99.90
2019-04-30T17:22:52.733Z,99.90
2019-04-30T17:25:14.111Z,99.90
2019-04-30T17:27:36.579Z,99.90
2019-04-30T17:29:56.685Z,99.90
2019-04-30T17:32:18.644Z,99.90
2019-04-30T17:34:39.197Z,99.90
2019-04-30T17:36:59.887Z,99.90
2019-04-30T17:39:21.222Z,99.90
2019-04-30T17:41:41.979Z,99.90
2019-04-30T17:44:02.570Z,99.90
2019-04-30T17:46:23.418Z,99.90
2019-04-30T17:48:44.276Z,99.90
2019-04-30T17:51:05.184Z,99.90
2019-04-30T17:53:26.037Z,99.90
2019-04-30T17:55:46.472Z,99.90
2019-04-30T17:58:10.227Z,99.90
2019-04-30T18:00:32.456Z,99.90
2019-04-30T18:02:53.315Z,99.90
2019-04-30T18:05:14.003Z,99.90
2019-04-30T18:07:34.617Z,99.90
2019-04-30T18:09:55.284Z,99.90
2019-04-30T18:12:15.990Z,99.90
2019-04-30T18:14:39.555Z,99.90
2019-04-30T18:16:59.439Z,99.90
2019-04-30T18:19:29.418Z,99.90
2019-04-30T18:21:52.259Z,99.90
2019-04-30T18:24:14.309Z,99.90
2019-04-30T18:26:37.698Z,99.90
2019-04-30T18:28:56.854Z,99.90
2019-04-30T18:31:18.605Z,99.90
2019-04-30T18:33:38.943Z,99.90
2019-04-30T18:35:59.747Z,99.90
2019-04-30T18:38:20.270Z,99.90
2019-04-30T18:40:42.600Z,99.90
2019-04-30T18:43:03.048Z,99.90
2019-04-30T18:45:23.750Z,99.90
2019-04-30T18:47:44.325Z,99.90
2019-04-30T18:50:06.201Z,99.90
2019-04-30T18:52:26.842Z,99.90
2019-04-30T18:54:49.401Z,99.90
2019-04-30T18:57:09.585Z,99.90
2019-04-30T18:59:32.691Z,99.90
2019-04-30T19:01:53.421Z,99.90
2019-04-30T19:04:14.205Z,99.90
2019-04-30T19:06:35.850Z,99.90
2019-04-30T19:09:14.362Z,99.90
2019-04-30T19:11:36.745Z,99.90
2019-04-30T19:14:14.138Z,99.90
2019-04-30T19:16:44.689Z,99.90
2019-04-30T19:19:20.232Z,99.90
2019-04-30T19:21:40.974Z,99.90
2019-04-30T19:24:01.014Z,99.90
2019-04-30T19:26:21.622Z,99.90
2019-04-30T19:28:42.146Z,99.90
2019-04-30T19:31:03.507Z,99.90
2019-04-30T19:33:26.155Z,99.90
2019-04-30T19:35:46.491Z,99.90
2019-04-30T19:38:09.099Z,99.90
2019-04-30T19:40:28.890Z,99.90
2019-04-30T19:42:50.933Z,99.90
2019-04-30T19:45:12.691Z,99.90
2019-04-30T19:47:34.279Z,99.90
2019-04-30T19:49:54.932Z,99.90
2019-04-30T19:52:15.697Z,99.90
2019-04-30T19:54:36.270Z,99.90
2019-04-30T19:56:58.521Z,99.90
2019-04-30T19:59:19.413Z,99.90
2019-04-30T20:01:39.962Z,99.90
2019-04-30T20:04:00.711Z,99.90
2019-04-30T20:06:21.446Z,99.90
2019-04-30T20:08:42.095Z,99.90
2019-04-30T20:11:04.752Z,99.90
2019-04-30T20:13:35.763Z,99.90
2019-04-30T20:15:49.391Z,99.90
2019-04-30T20:18:09.831Z,99.90
2019-04-30T20:20:30.590Z,99.90
2019-04-30T20:22:52.009Z,99.90
2019-04-30T20:25:12.811Z,99.90
2019-04-30T20:27:33.268Z,99.90
2019-04-30T20:29:53.921Z,99.90
2019-04-30T20:32:14.574Z,99.90
2019-04-30T20:34:35.141Z,99.90
2019-04-30T20:36:55.715Z,99.90
2019-04-30T20:39:18.074Z,99.90
2019-04-30T20:41:39.608Z,99.90
2019-04-30T20:44:00.628Z,99.90
2019-04-30T20:46:31.420Z,99.90
2019-04-30T20:48:44.010Z,99.90
2019-04-30T20:51:04.685Z,99.90
2019-04-30T20:53:25.409Z,99.90
2019-04-30T20:55:46.124Z,99.90
2019-04-30T20:58:06.830Z,99.90
2019-04-30T21:00:27.656Z,99.90
2019-04-30T21:02:48.565Z,99.90
2019-04-30T21:05:09.206Z,99.90
2019-04-30T21:07:30.693Z,99.90
2019-04-30T21:09:51.242Z,99.90
2019-04-30T21:12:11.681Z,99.90
2019-04-30T21:14:32.210Z,99.90
2019-04-30T21:16:52.461Z,99.90
2019-04-30T21:19:13.010Z,99.90
2019-04-30T21:21:33.598Z,99.90
2019-04-30T21:23:54.276Z,99.90
2019-04-30T21:26:14.956Z,99.90
2019-04-30T21:28:35.541Z,99.90
2019-04-30T21:30:56.688Z,99.90
2019-04-30T21:33:34.555Z,99.90
2019-04-30T21:36:02.415Z,99.90
2019-04-30T21:38:23.100Z,99.90
2019-04-30T21:40:43.909Z,99.90
2019-04-30T21:43:04.587Z,99.90
2019-04-30T21:45:25.176Z,99.90
2019-04-30T21:47:55.841Z,99.90
2019-04-30T21:50:10.204Z,99.90
2019-04-30T21:52:30.527Z,99.90
2019-04-30T21:54:51.436Z,99.90
2019-04-30T21:57:12.228Z,99.90
2019-04-30T21:59:33.193Z,99.90
2019-04-30T22:01:54.072Z,99.90
2019-04-30T22:04:15.140Z,99.90
2019-04-30T22:06:35.968Z,99.90
2019-04-30T22:08:58.452Z,99.90
2019-04-30T22:11:19.834Z,99.90
2019-04-30T22:13:43.097Z,99.90
2019-04-30T22:16:04.171Z,99.90
2019-04-30T22:18:24.771Z,99.90
2019-04-30T22:20:45.571Z,99.90
2019-04-30T22:23:07.111Z,99.90
2019-04-30T22:25:29.335Z,99.90
2019-04-30T22:27:50.186Z,99.90
2019-04-30T22:30:11.120Z,99.90
2019-04-30T22:32:31.686Z,99.90
2019-04-30T22:34:53.920Z,99.90
2019-04-30T22:37:15.867Z,99.90
2019-04-30T22:39:41.078Z,99.90
2019-04-30T22:42:08.891Z,99.90
2019-04-30T22:44:29.456Z,99.90
2019-04-30T22:46:50.139Z,99.90
2019-04-30T22:49:10.664Z,99.90
2019-04-30T22:51:31.258Z,99.90
2019-04-30T22:53:52.065Z,99.90
2019-04-30T22:56:12.612Z,99.90
2019-04-30T22:58:33.124Z,99.90
2019-04-30T23:00:55.396Z,99.90
2019-04-30T23:03:32.552Z,99.90
2019-04-30T23:05:53.455Z,99.90
2019-04-30T23:08:14.331Z,99.90
2019-04-30T23:10:35.028Z,99.90
2019-04-30T23:12:55.250Z,99.90
2019-04-30T23:15:16.938Z,99.90
2019-04-30T23:17:37.496Z,99.90
2019-04-30T23:19:58.186Z,99.90
2019-04-30T23:22:19.050Z,99.90
2019-04-30T23:24:39.567Z,99.90
2019-04-30T23:27:00.174Z,99.90
2019-04-30T23:29:20.748Z,99.90
2019-04-30T23:31:41.198Z,99.90
2019-04-30T23:34:01.712Z,99.90
2019-04-30T23:36:22.242Z,99.90
2019-04-30T23:38:42.689Z,99.90
2019-04-30T23:41:03.187Z,99.90
2019-04-30T23:43:23.708Z,99.90
2019-04-30T23:45:44.470Z,99.90
2019-04-30T23:48:05.014Z,99.90
2019-04-30T23:50:25.553Z,99.90
2019-04-30T23:52:46.151Z,99.90
2019-04-30T23:55:06.728Z,99.90
2019-04-30T23:57:27.271Z,99.90
2019-04-30T23:59:47.781Z,99.90
